sensor_id;sensor_type;location;lat;lon;timestamp;pressure;altitude;pressure_sealevel;temperature;humidity
17607;BME280;69222;52.242;20.980;2024-02-15T00:00:25;100922.75;;;6.44;56.75
17607;BME280;69222;52.242;20.980;2024-02-15T00:02:55;100927.91;;;6.47;57.69
17607;BME280;69222;52.242;20.980;2024-02-15T00:05:25;100927.06;;;6.48;57.02
17607;BME280;69222;52.242;20.980;2024-02-15T00:07:53;100923.72;;;6.49;57.14
17607;BME280;69222;52.242;20.980;2024-02-15T00:10:21;100922.78;;;6.45;56.89
17607;BME280;69222;52.242;20.980;2024-02-15T00:12:51;100920.22;;;6.45;57.10
17607;BME280;69222;52.242;20.980;2024-02-15T00:15:19;100921.94;;;6.45;57.57
17607;BME280;69222;52.242;20.980;2024-02-15T00:17:47;100923.59;;;6.43;57.58
17607;BME280;69222;52.242;20.980;2024-02-15T00:20:17;100927.91;;;6.45;57.46
17607;BME280;69222;52.242;20.980;2024-02-15T00:22:46;100925.28;;;6.44;57.28
17607;BME280;69222;52.242;20.980;2024-02-15T00:25:16;100927.91;;;6.47;57.34
17607;BME280;69222;52.242;20.980;2024-02-15T00:27:44;100925.28;;;6.44;57.53
17607;BME280;69222;52.242;20.980;2024-02-15T00:30:13;100922.72;;;6.41;57.13
17607;BME280;69222;52.242;20.980;2024-02-15T00:32:43;100925.25;;;6.41;57.84
17607;BME280;69222;52.242;20.980;2024-02-15T00:35:12;100927.81;;;6.41;56.71
17607;BME280;69222;52.242;20.980;2024-02-15T00:37:42;100923.44;;;6.37;57.08
17607;BME280;69222;52.242;20.980;2024-02-15T00:40:10;100925.97;;;6.34;57.57
17607;BME280;69222;52.242;20.980;2024-02-15T00:42:38;100928.47;;;6.31;57.74
17607;BME280;69222;52.242;20.980;2024-02-15T00:45:07;100927.63;;;6.32;57.49
17607;BME280;69222;52.242;20.980;2024-02-15T00:47:36;100928.50;;;6.32;57.68
17607;BME280;69222;52.242;20.980;2024-02-15T00:50:05;100926.69;;;6.26;58.01
17607;BME280;69222;52.242;20.980;2024-02-15T00:52:34;100926.63;;;6.23;57.49
17607;BME280;69222;52.242;20.980;2024-02-15T00:55:04;100923.28;;;6.26;58.60
17607;BME280;69222;52.242;20.980;2024-02-15T00:57:32;100916.44;;;6.26;57.79
17607;BME280;69222;52.242;20.980;2024-02-15T01:00:00;100919.97;;;6.33;58.19
17607;BME280;69222;52.242;20.980;2024-02-15T01:02:30;100923.44;;;6.37;58.17
17607;BME280;69222;52.242;20.980;2024-02-15T01:04:58;100921.78;;;6.37;57.85
17607;BME280;69222;52.242;20.980;2024-02-15T01:07:26;100918.31;;;6.34;58.27
17607;BME280;69222;52.242;20.980;2024-02-15T01:09:54;100916.53;;;6.31;57.72
17607;BME280;69222;52.242;20.980;2024-02-15T01:12:24;100922.44;;;6.28;58.37
17607;BME280;69222;52.242;20.980;2024-02-15T01:14:52;100922.44;;;6.27;57.85
17607;BME280;69222;52.242;20.980;2024-02-15T01:17:20;100918.19;;;6.29;58.66
17607;BME280;69222;52.242;20.980;2024-02-15T01:19:48;100921.59;;;6.29;58.01
17607;BME280;69222;52.242;20.980;2024-02-15T01:22:16;100916.44;;;6.26;57.93
17607;BME280;69222;52.242;20.980;2024-02-15T01:24:45;100924.94;;;6.25;58.39
17607;BME280;69222;52.242;20.980;2024-02-15T01:27:13;100923.19;;;6.23;58.17
17607;BME280;69222;52.242;20.980;2024-02-15T01:29:42;100921.56;;;6.26;58.56
17607;BME280;69222;52.242;20.980;2024-02-15T01:32:11;100918.16;;;6.27;58.49
17607;BME280;69222;52.242;20.980;2024-02-15T01:34:40;100912.19;;;6.27;58.69
17607;BME280;69222;52.242;20.980;2024-02-15T01:37:09;100912.19;;;6.27;58.15
17607;BME280;69222;52.242;20.980;2024-02-15T01:39:37;100903.69;;;6.29;58.65
17607;BME280;69222;52.242;20.980;2024-02-15T01:42:05;100907.16;;;6.32;58.46
17607;BME280;69222;52.242;20.980;2024-02-15T01:44:34;100903.75;;;6.33;58.50
17607;BME280;69222;52.242;20.980;2024-02-15T01:47:05;100903.75;;;6.33;58.57
17607;BME280;69222;52.242;20.980;2024-02-15T01:49:33;100903.72;;;6.31;58.63
17607;BME280;69222;52.242;20.980;2024-02-15T01:52:02;100898.63;;;6.31;58.43
17607;BME280;69222;52.242;20.980;2024-02-15T01:54:32;100896.91;;;6.32;58.59
17607;BME280;69222;52.242;20.980;2024-02-15T01:57:00;100894.34;;;6.32;58.69
17607;BME280;69222;52.242;20.980;2024-02-15T01:59:30;100897.75;;;6.31;58.39
17607;BME280;69222;52.242;20.980;2024-02-15T02:01:58;100894.28;;;6.27;58.84
17607;BME280;69222;52.242;20.980;2024-02-15T02:04:28;100899.34;;;6.25;58.57
17607;BME280;69222;52.242;20.980;2024-02-15T02:06:58;100895.84;;;6.20;58.66
17607;BME280;69222;52.242;20.980;2024-02-15T02:09:26;100887.25;;;6.18;59.14
17607;BME280;69222;52.242;20.980;2024-02-15T02:11:54;100897.63;;;6.24;58.59
17607;BME280;69222;52.242;20.980;2024-02-15T02:14:22;100880.63;;;6.26;58.92
17607;BME280;69222;52.242;20.980;2024-02-15T02:16:50;100878.06;;;6.28;59.41
17607;BME280;69222;52.242;20.980;2024-02-15T02:19:18;100885.06;;;6.37;58.79
17607;BME280;69222;52.242;20.980;2024-02-15T02:21:48;100892.81;;;6.40;58.66
17607;BME280;69222;52.242;20.980;2024-02-15T02:24:22;100885.13;;;6.40;58.87
17607;BME280;69222;52.242;20.980;2024-02-15T02:26:52;100888.59;;;6.42;58.70
17607;BME280;69222;52.242;20.980;2024-02-15T02:29:21;100887.81;;;6.46;58.53
17607;BME280;69222;52.242;20.980;2024-02-15T02:31:49;100886.94;;;6.45;58.33
17607;BME280;69222;52.242;20.980;2024-02-15T02:34:17;100893.00;;;6.49;58.76
17607;BME280;69222;52.242;20.980;2024-02-15T02:36:46;100887.81;;;6.47;58.47
17607;BME280;69222;52.242;20.980;2024-02-15T02:39:15;100884.41;;;6.47;58.59
17607;BME280;69222;52.242;20.980;2024-02-15T02:41:43;100888.72;;;6.49;59.10
17607;BME280;69222;52.242;20.980;2024-02-15T02:44:12;100884.47;;;6.50;58.60
17607;BME280;69222;52.242;20.980;2024-02-15T02:46:41;100887.94;;;6.52;58.57
17607;BME280;69222;52.242;20.980;2024-02-15T02:49:09;100890.50;;;6.53;58.41
17607;BME280;69222;52.242;20.980;2024-02-15T02:51:38;100891.41;;;6.56;58.68
17607;BME280;69222;52.242;20.980;2024-02-15T02:54:06;100887.16;;;6.56;58.72
17607;BME280;69222;52.242;20.980;2024-02-15T02:56:34;100887.97;;;6.55;58.77
17607;BME280;69222;52.242;20.980;2024-02-15T02:59:01;100881.13;;;6.54;58.26
17607;BME280;69222;52.242;20.980;2024-02-15T03:01:31;100880.25;;;6.52;58.70
17607;BME280;69222;52.242;20.980;2024-02-15T03:03:59;100881.16;;;6.56;59.11
17607;BME280;69222;52.242;20.980;2024-02-15T03:06:27;100879.47;;;6.56;58.74
17607;BME280;69222;52.242;20.980;2024-02-15T03:08:56;100884.66;;;6.59;59.11
17607;BME280;69222;52.242;20.980;2024-02-15T03:11:25;100892.28;;;6.58;58.42
17607;BME280;69222;52.242;20.980;2024-02-15T03:13:53;100885.38;;;6.53;58.21
17607;BME280;69222;52.242;20.980;2024-02-15T03:16:25;100889.66;;;6.54;58.55
17607;BME280;69222;52.242;20.980;2024-02-15T03:18:55;100894.75;;;6.53;58.62
17607;BME280;69222;52.242;20.980;2024-02-15T03:21:23;100891.38;;;6.54;58.66
17607;BME280;69222;52.242;20.980;2024-02-15T03:23:51;100894.78;;;6.54;59.09
17607;BME280;69222;52.242;20.980;2024-02-15T03:26:30;100904.16;;;6.52;58.56
17607;BME280;69222;52.242;20.980;2024-02-15T03:29:00;100899.03;;;6.52;59.51
17607;BME280;69222;52.242;20.980;2024-02-15T03:31:28;100898.19;;;6.55;59.30
17607;BME280;69222;52.242;20.980;2024-02-15T03:33:58;100902.53;;;6.58;59.89
17607;BME280;69222;52.242;20.980;2024-02-15T03:36:27;100898.25;;;6.58;59.29
17607;BME280;69222;52.242;20.980;2024-02-15T03:38:55;100892.34;;;6.59;59.22
17607;BME280;69222;52.242;20.980;2024-02-15T03:41:27;100895.78;;;6.63;59.25
17607;BME280;69222;52.242;20.980;2024-02-15T03:43:57;100887.28;;;6.64;59.06
17607;BME280;69222;52.242;20.980;2024-02-15T03:46:25;100889.00;;;6.65;59.00
17607;BME280;69222;52.242;20.980;2024-02-15T03:48:53;100889.81;;;6.62;59.06
17607;BME280;69222;52.242;20.980;2024-02-15T03:51:25;100888.94;;;6.62;59.63
17607;BME280;69222;52.242;20.980;2024-02-15T03:53:53;100883.03;;;6.64;59.43
17607;BME280;69222;52.242;20.980;2024-02-15T03:56:21;100888.09;;;6.61;59.46
17607;BME280;69222;52.242;20.980;2024-02-15T03:58:49;100885.47;;;6.58;58.98
17607;BME280;69222;52.242;20.980;2024-02-15T04:01:18;100882.84;;;6.55;59.77
17607;BME280;69222;52.242;20.980;2024-02-15T04:03:46;100885.31;;;6.50;60.05
17607;BME280;69222;52.242;20.980;2024-02-15T04:06:14;100884.44;;;6.48;59.66
17607;BME280;69222;52.242;20.980;2024-02-15T04:08:44;100882.63;;;6.43;59.75
17607;BME280;69222;52.242;20.980;2024-02-15T04:11:12;100883.41;;;6.40;59.80
17607;BME280;69222;52.242;20.980;2024-02-15T04:13:40;100884.25;;;6.38;60.06
17607;BME280;69222;52.242;20.980;2024-02-15T04:16:09;100878.22;;;6.36;59.62
17607;BME280;69222;52.242;20.980;2024-02-15T04:18:37;100876.47;;;6.33;60.32
17607;BME280;69222;52.242;20.980;2024-02-15T04:21:05;100880.72;;;6.33;60.99
17607;BME280;69222;52.242;20.980;2024-02-15T04:23:34;100881.63;;;6.35;60.52
17607;BME280;69222;52.242;20.980;2024-02-15T04:26:03;100882.47;;;6.34;60.02
17607;BME280;69222;52.242;20.980;2024-02-15T04:28:31;100872.16;;;6.31;59.92
17607;BME280;69222;52.242;20.980;2024-02-15T04:31:00;100889.25;;;6.32;61.04
17607;BME280;69222;52.242;20.980;2024-02-15T04:33:28;100875.53;;;6.29;60.08
17607;BME280;69222;52.242;20.980;2024-02-15T04:35:56;100889.31;;;6.35;60.53
17607;BME280;69222;52.242;20.980;2024-02-15T04:38:25;100881.63;;;6.35;60.35
17607;BME280;69222;52.242;20.980;2024-02-15T04:40:53;100881.63;;;6.36;60.50
17607;BME280;69222;52.242;20.980;2024-02-15T04:43:23;100882.56;;;6.40;60.59
17607;BME280;69222;52.242;20.980;2024-02-15T04:45:52;100881.75;;;6.42;61.37
17607;BME280;69222;52.242;20.980;2024-02-15T04:48:20;100881.78;;;6.44;60.37
17607;BME280;69222;52.242;20.980;2024-02-15T04:50:51;100883.53;;;6.45;60.01
17607;BME280;69222;52.242;20.980;2024-02-15T04:53:21;100892.06;;;6.45;60.28
17607;BME280;69222;52.242;20.980;2024-02-15T04:55:49;100882.69;;;6.46;60.31
17607;BME280;69222;52.242;20.980;2024-02-15T04:58:17;100886.09;;;6.45;60.60
17607;BME280;69222;52.242;20.980;2024-02-15T05:00:47;100888.66;;;6.45;60.39
17607;BME280;69222;52.242;20.980;2024-02-15T05:03:19;100887.75;;;6.43;60.96
17607;BME280;69222;52.242;20.980;2024-02-15T05:05:47;100891.16;;;6.42;60.49
17607;BME280;69222;52.242;20.980;2024-02-15T05:08:15;100895.47;;;6.44;60.42
17607;BME280;69222;52.242;20.980;2024-02-15T05:10:43;100892.94;;;6.46;60.48
17607;BME280;69222;52.242;20.980;2024-02-15T05:13:12;100889.50;;;6.45;60.97
17607;BME280;69222;52.242;20.980;2024-02-15T05:15:40;100885.22;;;6.44;60.50
17607;BME280;69222;52.242;20.980;2024-02-15T05:18:10;100878.34;;;6.42;60.84
17607;BME280;69222;52.242;20.980;2024-02-15T05:20:38;100881.69;;;6.39;60.32
17607;BME280;69222;52.242;20.980;2024-02-15T05:23:07;100891.09;;;6.40;60.29
17607;BME280;69222;52.242;20.980;2024-02-15T05:25:35;100882.59;;;6.41;60.84
17607;BME280;69222;52.242;20.980;2024-02-15T05:28:04;100889.44;;;6.41;61.63
17607;BME280;69222;52.242;20.980;2024-02-15T05:30:32;100888.59;;;6.43;61.26
17607;BME280;69222;52.242;20.980;2024-02-15T05:33:00;100898.84;;;6.43;61.52
17607;BME280;69222;52.242;20.980;2024-02-15T05:35:32;100900.59;;;6.44;61.13
17607;BME280;69222;52.242;20.980;2024-02-15T05:38:02;100899.75;;;6.45;61.49
17607;BME280;69222;52.242;20.980;2024-02-15T05:40:31;100902.31;;;6.45;61.36
17607;BME280;69222;52.242;20.980;2024-02-15T05:43:00;100904.94;;;6.48;62.00
17607;BME280;69222;52.242;20.980;2024-02-15T05:45:30;100897.28;;;6.51;61.45
17607;BME280;69222;52.242;20.980;2024-02-15T05:48:03;100905.06;;;6.56;61.91
17607;BME280;69222;52.242;20.980;2024-02-15T05:50:35;100904.25;;;6.59;61.62
17607;BME280;69222;52.242;20.980;2024-02-15T05:53:04;100914.47;;;6.59;61.72
17607;BME280;69222;52.242;20.980;2024-02-15T05:55:34;100911.84;;;6.54;61.25
17607;BME280;69222;52.242;20.980;2024-02-15T05:58:04;100907.59;;;6.54;61.95
17607;BME280;69222;52.242;20.980;2024-02-15T06:00:35;100915.25;;;6.53;61.59
17607;BME280;69222;52.242;20.980;2024-02-15T06:03:05;100910.84;;;6.46;61.97
17607;BME280;69222;52.242;20.980;2024-02-15T06:05:37;100915.91;;;6.43;61.91
17607;BME280;69222;52.242;20.980;2024-02-15T06:08:06;100913.28;;;6.40;62.69
17607;BME280;69222;52.242;20.980;2024-02-15T06:10:34;100913.28;;;6.40;62.03
17607;BME280;69222;52.242;20.980;2024-02-15T06:13:02;100915.91;;;6.43;63.44
17607;BME280;69222;52.242;20.980;2024-02-15T06:15:31;100922.72;;;6.42;63.11
17607;BME280;69222;52.242;20.980;2024-02-15T06:18:00;100924.50;;;6.45;63.49
17607;BME280;69222;52.242;20.980;2024-02-15T06:20:28;100915.91;;;6.43;64.28
17607;BME280;69222;52.242;20.980;2024-02-15T06:22:58;100926.97;;;6.42;65.17
17607;BME280;69222;52.242;20.980;2024-02-15T06:25:27;100935.50;;;6.41;65.10
17607;BME280;69222;52.242;20.980;2024-02-15T06:27:55;100934.59;;;6.39;65.92
17607;BME280;69222;52.242;20.980;2024-02-15T06:30:28;100936.22;;;6.34;66.37
17607;BME280;69222;52.242;20.980;2024-02-15T06:33:14;100930.09;;;6.27;67.40
17607;BME280;69222;52.242;20.980;2024-02-15T06:36:04;100938.56;;;6.24;68.37
17607;BME280;69222;52.242;20.980;2024-02-15T06:38:51;100934.22;;;6.20;68.78
17607;BME280;69222;52.242;20.980;2024-02-15T06:41:37;100923.09;;;6.18;69.48
17607;BME280;69222;52.242;20.980;2024-02-15T06:44:07;100933.38;;;6.21;69.95
17607;BME280;69222;52.242;20.980;2024-02-15T06:46:36;100930.88;;;6.23;70.24
17607;BME280;69222;52.242;20.980;2024-02-15T06:49:04;100938.56;;;6.24;70.55
17607;BME280;69222;52.242;20.980;2024-02-15T06:51:33;100926.69;;;6.26;71.45
17607;BME280;69222;52.242;20.980;2024-02-15T06:54:02;100927.47;;;6.24;71.01
17607;BME280;69222;52.242;20.980;2024-02-15T06:56:30;100933.53;;;6.27;71.84
17607;BME280;69222;52.242;20.980;2024-02-15T06:59:03;100934.47;;;6.33;71.85
17607;BME280;69222;52.242;20.980;2024-02-15T07:01:31;100929.41;;;6.34;72.47
17607;BME280;69222;52.242;20.980;2024-02-15T07:04:00;100937.03;;;6.33;73.14
17607;BME280;69222;52.242;20.980;2024-02-15T07:06:30;100944.75;;;6.34;73.73
17607;BME280;69222;52.242;20.980;2024-02-15T07:08:58;100942.22;;;6.36;73.68
17607;BME280;69222;52.242;20.980;2024-02-15T07:11:28;100946.53;;;6.38;73.98
17607;BME280;69222;52.242;20.980;2024-02-15T07:13:57;100949.97;;;6.40;73.80
17607;BME280;69222;52.242;20.980;2024-02-15T07:16:25;100951.66;;;6.38;74.35
17607;BME280;69222;52.242;20.980;2024-02-15T07:18:53;100955.84;;;6.35;75.35
17607;BME280;69222;52.242;20.980;2024-02-15T07:21:25;100957.44;;;6.29;75.67
17607;BME280;69222;52.242;20.980;2024-02-15T07:23:54;100954.69;;;6.20;76.84
17607;BME280;69222;52.242;20.980;2024-02-15T07:26:23;100964.94;;;6.22;76.52
17607;BME280;69222;52.242;20.980;2024-02-15T07:28:54;100961.59;;;6.24;78.08
17607;BME280;69222;52.242;20.980;2024-02-15T07:31:26;100964.22;;;6.27;77.22
17607;BME280;69222;52.242;20.980;2024-02-15T07:33:56;100958.19;;;6.24;77.87
17607;BME280;69222;52.242;20.980;2024-02-15T07:36:25;100959.03;;;6.24;77.59
17607;BME280;69222;52.242;20.980;2024-02-15T07:38:59;100960.75;;;6.25;78.03
17607;BME280;69222;52.242;20.980;2024-02-15T07:41:29;100965.94;;;6.27;78.56
17607;BME280;69222;52.242;20.980;2024-02-15T07:43:59;100962.41;;;6.22;78.83
17607;BME280;69222;52.242;20.980;2024-02-15T07:46:28;100956.31;;;6.15;79.12
17607;BME280;69222;52.242;20.980;2024-02-15T07:48:56;100960.59;;;6.16;79.53
17607;BME280;69222;52.242;20.980;2024-02-15T07:51:24;100960.44;;;6.10;79.12
17607;BME280;69222;52.242;20.980;2024-02-15T07:53:52;100955.31;;;6.10;80.02
17607;BME280;69222;52.242;20.980;2024-02-15T07:56:21;100957.09;;;6.13;80.10
17607;BME280;69222;52.242;20.980;2024-02-15T07:58:49;100948.59;;;6.14;80.57
17607;BME280;69222;52.242;20.980;2024-02-15T08:01:21;100948.63;;;6.15;80.56
17607;BME280;69222;52.242;20.980;2024-02-15T08:03:51;100951.06;;;6.09;79.91
17607;BME280;69222;52.242;20.980;2024-02-15T08:06:22;100945.00;;;6.04;80.57
17607;BME280;69222;52.242;20.980;2024-02-15T08:08:55;100947.50;;;6.02;82.01
17607;BME280;69222;52.242;20.980;2024-02-15T08:11:23;100950.19;;;6.09;82.16
17607;BME280;69222;52.242;20.980;2024-02-15T08:13:53;100946.78;;;6.10;83.00
17607;BME280;69222;52.242;20.980;2024-02-15T08:16:27;100951.91;;;6.10;82.77
17607;BME280;69222;52.242;20.980;2024-02-15T08:18:55;100949.34;;;6.10;83.30
17607;BME280;69222;52.242;20.980;2024-02-15T08:21:27;100949.44;;;6.14;83.87
17607;BME280;69222;52.242;20.980;2024-02-15T08:23:56;100951.28;;;6.20;83.61
17607;BME280;69222;52.242;20.980;2024-02-15T08:26:25;100957.34;;;6.25;83.89
17607;BME280;69222;52.242;20.980;2024-02-15T08:28:53;100955.78;;;6.32;84.23
17607;BME280;69222;52.242;20.980;2024-02-15T08:31:23;100959.28;;;6.37;84.03
17607;BME280;69222;52.242;20.980;2024-02-15T08:33:52;100961.09;;;6.41;84.30
17607;BME280;69222;52.242;20.980;2024-02-15T08:36:20;100968.03;;;6.48;84.44
17607;BME280;69222;52.242;20.980;2024-02-15T08:38:49;100951.03;;;6.50;83.97
17607;BME280;69222;52.242;20.980;2024-02-15T08:41:17;100957.91;;;6.52;84.91
17607;BME280;69222;52.242;20.980;2024-02-15T08:43:47;100957.91;;;6.52;84.84
17607;BME280;69222;52.242;20.980;2024-02-15T08:46:16;100957.06;;;6.53;84.91
17607;BME280;69222;52.242;20.980;2024-02-15T08:48:44;100959.63;;;6.52;84.60
17607;BME280;69222;52.242;20.980;2024-02-15T08:51:15;100962.13;;;6.50;84.87
17607;BME280;69222;52.242;20.980;2024-02-15T08:53:44;100962.13;;;6.49;85.32
17607;BME280;69222;52.242;20.980;2024-02-15T08:56:12;100970.66;;;6.49;85.25
17607;BME280;69222;52.242;20.980;2024-02-15T08:58:40;100965.53;;;6.49;85.23
17607;BME280;69222;52.242;20.980;2024-02-15T09:01:09;100968.97;;;6.51;86.09
17607;BME280;69222;52.242;20.980;2024-02-15T09:03:40;100967.25;;;6.50;85.04
17607;BME280;69222;52.242;20.980;2024-02-15T09:06:08;100984.31;;;6.51;85.18
17607;BME280;69222;52.242;20.980;2024-02-15T09:08:39;100977.56;;;6.55;85.56
17607;BME280;69222;52.242;20.980;2024-02-15T09:11:07;100975.91;;;6.56;85.47
17607;BME280;69222;52.242;20.980;2024-02-15T09:13:39;100980.19;;;6.58;85.77
17607;BME280;69222;52.242;20.980;2024-02-15T09:16:07;100972.59;;;6.63;85.74
17607;BME280;69222;52.242;20.980;2024-02-15T09:18:35;100976.13;;;6.68;84.76
17607;BME280;69222;52.242;20.980;2024-02-15T09:21:04;100982.13;;;6.70;85.44
17607;BME280;69222;52.242;20.980;2024-02-15T09:23:33;100975.38;;;6.73;85.90
17607;BME280;69222;52.242;20.980;2024-02-15T09:26:02;100975.44;;;6.76;85.78
17607;BME280;69222;52.242;20.980;2024-02-15T09:28:30;100977.22;;;6.81;85.49
17607;BME280;69222;52.242;20.980;2024-02-15T09:30:59;100978.19;;;6.86;85.01
17607;BME280;69222;52.242;20.980;2024-02-15T09:33:28;100981.63;;;6.88;85.76
17607;BME280;69222;52.242;20.980;2024-02-15T09:35:56;100990.28;;;6.93;85.04
17607;BME280;69222;52.242;20.980;2024-02-15T09:38:24;100993.69;;;6.95;85.28
17607;BME280;69222;52.242;20.980;2024-02-15T09:40:52;100989.44;;;6.94;85.54
17607;BME280;69222;52.242;20.980;2024-02-15T09:43:23;100991.22;;;6.98;84.77
17607;BME280;69222;52.242;20.980;2024-02-15T09:45:53;100987.00;;;7.01;84.97
17607;BME280;69222;52.242;20.980;2024-02-15T09:48:23;100994.75;;;7.06;85.30
17607;BME280;69222;52.242;20.980;2024-02-15T09:50:53;100992.19;;;7.05;84.84
17607;BME280;69222;52.242;20.980;2024-02-15T09:53:22;100983.53;;;6.99;84.60
17607;BME280;69222;52.242;20.980;2024-02-15T09:55:53;100982.66;;;6.96;84.16
17607;BME280;69222;52.242;20.980;2024-02-15T09:58:22;100983.47;;;6.95;84.59
17607;BME280;69222;52.242;20.980;2024-02-15T10:00:50;100983.38;;;6.90;85.64
17607;BME280;69222;52.242;20.980;2024-02-15T10:03:19;100980.69;;;6.84;85.87
17607;BME280;69222;52.242;20.980;2024-02-15T10:05:48;100977.19;;;6.77;86.06
17607;BME280;69222;52.242;20.980;2024-02-15T10:08:18;100980.59;;;6.78;86.27
17607;BME280;69222;52.242;20.980;2024-02-15T10:10:55;100973.72;;;6.75;86.17
17607;BME280;69222;52.242;20.980;2024-02-15T10:13:34;100972.78;;;6.72;86.31
17607;BME280;69222;52.242;20.980;2024-02-15T10:16:14;100970.22;;;6.70;87.35
17607;BME280;69222;52.242;20.980;2024-02-15T10:18:42;100970.22;;;6.70;86.86
17607;BME280;69222;52.242;20.980;2024-02-15T10:21:23;100973.59;;;6.69;87.01
17607;BME280;69222;52.242;20.980;2024-02-15T10:24:04;100976.19;;;6.71;88.14
17607;BME280;69222;52.242;20.980;2024-02-15T10:26:33;100966.88;;;6.74;87.43
17607;BME280;69222;52.242;20.980;2024-02-15T10:29:08;100966.94;;;6.79;88.48
17607;BME280;69222;52.242;20.980;2024-02-15T10:31:38;100964.47;;;6.84;87.65
17607;BME280;69222;52.242;20.980;2024-02-15T10:34:07;100963.00;;;6.96;87.99
17607;BME280;69222;52.242;20.980;2024-02-15T10:36:36;100964.00;;;7.06;88.04
17607;BME280;69222;52.242;20.980;2024-02-15T10:39:11;100960.72;;;7.13;87.83
17607;BME280;69222;52.242;20.980;2024-02-15T10:41:45;100955.72;;;7.21;87.83
17607;BME280;69222;52.242;20.980;2024-02-15T10:44:19;100958.38;;;7.25;87.81
17607;BME280;69222;52.242;20.980;2024-02-15T10:46:48;100953.28;;;7.29;87.77
17607;BME280;69222;52.242;20.980;2024-02-15T10:49:22;100961.13;;;7.38;87.56
17607;BME280;69222;52.242;20.980;2024-02-15T10:51:54;100945.69;;;7.35;87.70
17607;BME280;69222;52.242;20.980;2024-02-15T10:54:37;100948.38;;;7.42;86.87
17607;BME280;69222;52.242;20.980;2024-02-15T10:57:09;100947.59;;;7.45;86.98
17607;BME280;69222;52.242;20.980;2024-02-15T10:59:48;100947.63;;;7.48;87.95
17607;BME280;69222;52.242;20.980;2024-02-15T11:02:26;100951.97;;;7.54;87.56
17607;BME280;69222;52.242;20.980;2024-02-15T11:05:00;100943.47;;;7.56;87.90
17607;BME280;69222;52.242;20.980;2024-02-15T11:07:31;100952.13;;;7.63;87.34
17607;BME280;69222;52.242;20.980;2024-02-15T11:10:00;100947.91;;;7.66;87.55
17607;BME280;69222;52.242;20.980;2024-02-15T11:12:29;100962.50;;;7.72;87.68
17607;BME280;69222;52.242;20.980;2024-02-15T11:14:59;100949.69;;;7.70;87.84
17607;BME280;69222;52.242;20.980;2024-02-15T11:17:54;100951.41;;;7.71;87.51
17607;BME280;69222;52.242;20.980;2024-02-15T11:20:46;100942.03;;;7.73;88.03
17607;BME280;69222;52.242;20.980;2024-02-15T11:23:25;100941.22;;;7.78;87.34
17607;BME280;69222;52.242;20.980;2024-02-15T11:26:04;100939.59;;;7.83;87.68
17607;BME280;69222;52.242;20.980;2024-02-15T11:28:39;100931.03;;;7.84;87.69
17607;BME280;69222;52.242;20.980;2024-02-15T11:31:10;100925.94;;;7.87;87.29
17607;BME280;69222;52.242;20.980;2024-02-15T11:33:42;100923.44;;;7.90;87.45
17607;BME280;69222;52.242;20.980;2024-02-15T11:36:12;100926.91;;;7.95;88.14
17607;BME280;69222;52.242;20.980;2024-02-15T11:38:41;100924.38;;;7.98;87.51
17607;BME280;69222;52.242;20.980;2024-02-15T11:41:11;100916.69;;;7.98;87.96
17607;BME280;69222;52.242;20.980;2024-02-15T11:43:46;100919.31;;;8.01;88.00
17607;BME280;69222;52.242;20.980;2024-02-15T11:46:19;100919.44;;;8.10;88.19
17607;BME280;69222;52.242;20.980;2024-02-15T11:48:47;100924.66;;;8.19;87.59
17607;BME280;69222;52.242;20.980;2024-02-15T11:51:32;100921.28;;;8.23;87.82
17607;BME280;69222;52.242;20.980;2024-02-15T11:54:06;100926.47;;;8.25;87.28
17607;BME280;69222;52.242;20.980;2024-02-15T11:56:53;100928.19;;;8.26;87.17
17607;BME280;69222;52.242;20.980;2024-02-15T11:59:38;100921.34;;;8.27;86.39
17607;BME280;69222;52.242;20.980;2024-02-15T12:02:21;100925.56;;;8.24;87.29
17607;BME280;69222;52.242;20.980;2024-02-15T12:05:07;100932.47;;;8.27;86.67
17607;BME280;69222;52.242;20.980;2024-02-15T12:07:52;100918.78;;;8.28;86.67
17607;BME280;69222;52.242;20.980;2024-02-15T12:10:38;100921.47;;;8.36;86.89
17607;BME280;69222;52.242;20.980;2024-02-15T12:13:24;100919.81;;;8.41;86.75
17607;BME280;69222;52.242;20.980;2024-02-15T12:16:09;100912.19;;;8.49;86.76
17607;BME280;69222;52.242;20.980;2024-02-15T12:18:56;100914.84;;;8.58;87.11
17607;BME280;69222;52.242;20.980;2024-02-15T12:21:27;100914.09;;;8.66;87.26
17607;BME280;69222;52.242;20.980;2024-02-15T12:23:56;100907.31;;;8.73;87.23
17607;BME280;69222;52.242;20.980;2024-02-15T12:26:25;100904.75;;;8.76;86.32
17607;BME280;69222;52.242;20.980;2024-02-15T12:28:55;100917.66;;;8.79;86.15
17607;BME280;69222;52.242;20.980;2024-02-15T12:31:25;100907.31;;;8.76;85.50
17607;BME280;69222;52.242;20.980;2024-02-15T12:34:02;100915.03;;;8.75;85.69
17607;BME280;69222;52.242;20.980;2024-02-15T12:36:34;100906.47;;;8.76;86.08
17607;BME280;69222;52.242;20.980;2024-02-15T12:39:04;100910.81;;;8.81;86.18
17607;BME280;69222;52.242;20.980;2024-02-15T12:41:39;100910.84;;;8.84;85.95
17607;BME280;69222;52.242;20.980;2024-02-15T12:44:08;100904.03;;;8.89;85.79
17607;BME280;69222;52.242;20.980;2024-02-15T12:46:37;100906.63;;;8.89;85.44
17607;BME280;69222;52.242;20.980;2024-02-15T12:49:27;100902.28;;;8.85;85.31
17607;BME280;69222;52.242;20.980;2024-02-15T12:55:10;100910.00;;;8.84;85.63
17607;BME280;69222;52.242;20.980;2024-02-15T12:57:39;100906.53;;;8.82;85.76
17607;BME280;69222;52.242;20.980;2024-02-15T13:00:12;100911.69;;;8.80;85.87
17607;BME280;69222;52.242;20.980;2024-02-15T13:02:46;100906.50;;;8.79;86.02
17607;BME280;69222;52.242;20.980;2024-02-15T13:05:18;100899.66;;;8.78;85.66
17607;BME280;69222;52.242;20.980;2024-02-15T13:07:47;100902.25;;;8.81;86.51
17607;BME280;69222;52.242;20.980;2024-02-15T13:10:15;100903.22;;;8.92;86.43